createdAt,value
2019-04-19T00:00:38.435Z,8.40
2019-04-19T00:03:10.822Z,6.73
2019-04-19T00:05:45.649Z,9.67
2019-04-19T00:08:26.315Z,6.53
2019-04-19T00:10:50.292Z,6.97
2019-04-19T00:13:13.474Z,12.05
2019-04-19T00:15:42.032Z,16.17
2019-04-19T00:18:14.880Z,8.83
2019-04-19T00:21:02.735Z,9.60
2019-04-19T00:23:21.621Z,9.90
2019-04-19T00:25:41.113Z,12.47
2019-04-19T00:28:14.868Z,6.47
2019-04-19T00:30:49.464Z,11.70
2019-04-19T00:33:21.198Z,8.90
2019-04-19T00:35:41.262Z,9.80
2019-04-19T00:38:14.486Z,8.10
2019-04-19T00:40:59.932Z,8.90
2019-04-19T00:43:37.534Z,7.47
2019-04-19T00:46:09.196Z,7.60
2019-04-19T00:48:36.003Z,9.70
2019-04-19T00:51:05.019Z,8.60
2019-04-19T00:53:32.932Z,9.45
2019-04-19T00:56:02.583Z,9.83
2019-04-19T00:58:29.076Z,9.75
2019-04-19T01:00:57.846Z,8.60
2019-04-19T01:03:31.624Z,8.90
2019-04-19T01:06:03.129Z,8.07
2019-04-19T01:08:26.082Z,10.35
2019-04-19T01:11:08.111Z,8.70
2019-04-19T01:13:41.592Z,8.63
2019-04-19T01:16:08.098Z,8.47
2019-04-19T01:18:37.814Z,9.70
2019-04-19T01:20:56.368Z,8.80
2019-04-19T01:23:24.903Z,7.90
2019-04-19T01:25:59.253Z,7.90
2019-04-19T01:28:26.196Z,7.80
2019-04-19T01:30:54.836Z,8.03
2019-04-19T01:33:38.118Z,8.30
2019-04-19T01:36:04.341Z,9.50
2019-04-19T01:38:43.463Z,8.40
2019-04-19T01:41:18.562Z,9.87
2019-04-19T01:43:54.979Z,7.72
2019-04-19T01:46:24.438Z,7.30
2019-04-19T01:48:50.655Z,9.55
2019-04-19T01:51:33.354Z,9.90
2019-04-19T01:54:01.939Z,11.10
2019-04-19T01:56:15.120Z,8.10
2019-04-19T01:58:47.076Z,8.53
2019-04-19T02:01:16.515Z,7.27
2019-04-19T02:03:46.217Z,9.48
2019-04-19T02:06:14.665Z,7.90
2019-04-19T02:08:49.189Z,9.13
2019-04-19T02:11:51.312Z,6.23
2019-04-19T02:14:20.641Z,11.97
2019-04-19T02:16:49.703Z,8.40
2019-04-19T02:19:19.459Z,7.22
2019-04-19T02:21:47.023Z,7.87
2019-04-19T02:24:14.915Z,7.87
2019-04-19T02:26:50.059Z,8.13
2019-04-19T02:29:19.591Z,8.18
2019-04-19T02:34:39.836Z,8.25
2019-04-19T02:42:24.402Z,9.10
2019-04-19T02:44:51.329Z,8.68
2019-04-19T02:47:18.029Z,8.40
2019-04-19T02:49:56.051Z,10.38
2019-04-19T02:54:58.870Z,9.48
2019-04-19T02:57:30.148Z,8.60
2019-04-19T03:02:46.983Z,9.30
2019-04-19T03:05:15.003Z,8.80
2019-04-19T03:07:17.785Z,11.07
2019-04-19T03:09:47.313Z,11.22
2019-04-19T03:12:37.007Z,10.90
2019-04-19T03:15:02.110Z,7.50
2019-04-19T03:17:34.990Z,7.53
2019-04-19T03:20:02.518Z,7.33
2019-04-19T03:22:34.702Z,8.23
2019-04-19T03:25:06.477Z,12.90
2019-04-19T03:27:26.378Z,17.95
2019-04-19T03:29:55.583Z,9.50
2019-04-19T03:32:56.239Z,8.07
2019-04-19T03:35:06.531Z,8.13
2019-04-19T03:37:40.249Z,10.03
2019-04-19T03:40:20.224Z,9.25
2019-04-19T03:43:09.208Z,10.37
2019-04-19T03:45:28.924Z,9.45
2019-04-19T03:48:04.523Z,8.58
2019-04-19T03:50:26.454Z,10.03
2019-04-19T03:52:53.721Z,11.00
2019-04-19T03:55:28.732Z,9.70
2019-04-19T03:57:52.388Z,10.63
2019-04-19T04:00:13.203Z,9.33
2019-04-19T04:02:45.863Z,11.35
2019-04-19T04:05:16.233Z,13.75
2019-04-19T04:07:47.993Z,13.72
2019-04-19T04:10:21.025Z,9.33
2019-04-19T04:13:10.805Z,10.43
2019-04-19T04:15:54.047Z,9.58
2019-04-19T04:18:13.389Z,9.10
2019-04-19T04:20:48.536Z,10.43
2019-04-19T04:23:16.420Z,9.23
2019-04-19T04:25:53.434Z,9.33
2019-04-19T04:28:26.468Z,9.95
2019-04-19T04:30:57.572Z,8.23
2019-04-19T04:33:26.608Z,7.72
2019-04-19T04:35:58.644Z,9.48
2019-04-19T04:38:21.748Z,8.50
2019-04-19T04:40:44.359Z,12.28
2019-04-19T04:43:27.999Z,10.72
2019-04-19T04:46:15.494Z,9.23
2019-04-19T04:48:43.713Z,10.18
2019-04-19T04:51:22.334Z,9.07
2019-04-19T04:53:32.068Z,8.90
2019-04-19T04:56:05.714Z,10.30
2019-04-19T04:58:36.919Z,9.98
2019-04-19T05:01:09.053Z,11.07
2019-04-19T05:03:51.124Z,8.85
2019-04-19T05:06:23.344Z,10.10
2019-04-19T05:08:52.921Z,10.75
2019-04-19T05:11:22.858Z,12.67
2019-04-19T05:13:56.068Z,12.68
2019-04-19T05:16:26.924Z,11.10
2019-04-19T05:18:50.975Z,10.23
2019-04-19T05:21:23.123Z,9.50
2019-04-19T05:23:59.568Z,11.35
2019-04-19T05:26:33.764Z,15.23
2019-04-19T05:28:52.550Z,11.05
2019-04-19T05:31:08.989Z,9.73
2019-04-19T05:33:47.756Z,8.08
2019-04-19T05:36:26.156Z,8.13
2019-04-19T05:38:59.763Z,9.35
2019-04-19T05:41:29.958Z,10.98
2019-04-19T05:44:26.970Z,9.18
2019-04-19T05:46:41.946Z,9.30
2019-04-19T05:49:08.035Z,9.03
2019-04-19T05:51:45.001Z,11.40
2019-04-19T05:53:54.907Z,12.25
2019-04-19T05:56:22.211Z,15.50
2019-04-19T05:59:01.399Z,8.60
2019-04-19T06:01:36.441Z,9.07
2019-04-19T06:04:12.014Z,12.05
2019-04-19T06:06:45.149Z,8.77
2019-04-19T06:08:51.897Z,9.75
2019-04-19T06:11:23.953Z,31.63
2019-04-19T06:14:11.621Z,34.10
2019-04-19T06:16:35.024Z,21.70
2019-04-19T06:19:11.407Z,9.48
2019-04-19T06:21:36.752Z,11.37
2019-04-19T06:24:17.959Z,8.90
2019-04-19T06:29:11.009Z,7.35
2019-04-19T06:31:46.111Z,8.60
2019-04-19T06:34:17.386Z,8.50
2019-04-19T06:36:23.364Z,7.30
2019-04-19T06:38:52.753Z,7.60
2019-04-19T06:41:23.825Z,7.03
2019-04-19T06:44:01.599Z,8.28
2019-04-19T06:46:35.898Z,8.10
2019-04-19T06:48:59.742Z,8.45
2019-04-19T06:51:31.647Z,8.75
2019-04-19T06:53:57.217Z,7.58
2019-04-19T06:56:29.551Z,7.90
2019-04-19T06:59:05.714Z,7.85
2019-04-19T07:01:33.354Z,6.43
2019-04-19T07:03:53.753Z,6.37
2019-04-19T07:06:36.387Z,7.37
2019-04-19T07:09:31.053Z,6.42
2019-04-19T07:11:48.736Z,6.73
2019-04-19T07:14:03.083Z,6.10
2019-04-19T07:16:44.080Z,9.23
2019-04-19T07:19:15.942Z,20.08
2019-04-19T07:21:43.895Z,7.10
2019-04-19T07:24:16.238Z,6.65
2019-04-19T07:26:45.215Z,6.33
2019-04-19T07:28:53.978Z,7.20
2019-04-19T07:31:23.800Z,8.53
2019-04-19T07:34:06.359Z,7.30
2019-04-19T07:36:44.444Z,7.10
2019-04-19T07:39:08.805Z,6.53
2019-04-19T07:41:37.628Z,6.80
2019-04-19T07:44:09.945Z,5.47
2019-04-19T07:46:50.225Z,5.53
2019-04-19T07:49:02.002Z,6.22
2019-04-19T07:51:35.926Z,10.10
2019-04-19T07:54:08.544Z,6.47
2019-04-19T07:56:44.625Z,7.90
2019-04-19T07:59:29.155Z,5.80
2019-04-19T08:07:01.768Z,4.47
2019-04-19T08:09:31.067Z,5.47
2019-04-19T08:14:35.778Z,6.17
2019-04-19T08:29:16.954Z,6.50
2019-04-19T08:31:35.963Z,5.30
2019-04-19T08:34:09.405Z,5.40
2019-04-19T08:36:43.631Z,5.30
2019-04-19T08:39:30.162Z,5.30
2019-04-19T08:42:02.941Z,10.53
2019-04-19T08:44:21.875Z,6.43
2019-04-19T08:46:43.032Z,6.27
2019-04-19T08:49:24.127Z,4.73
2019-04-19T08:51:48.730Z,12.07
2019-04-19T08:54:37.255Z,8.97
2019-04-19T08:56:55.396Z,5.30
2019-04-19T09:02:05.045Z,3.70
2019-04-19T09:04:38.840Z,5.03
2019-04-19T09:07:34.114Z,4.83
2019-04-19T09:09:49.497Z,12.30
2019-04-19T09:12:09.480Z,4.93
2019-04-19T09:14:39.500Z,4.50
2019-04-19T09:17:14.651Z,6.53
2019-04-19T09:20:01.133Z,6.10
2019-04-19T09:22:07.892Z,4.93
2019-04-19T09:24:31.028Z,7.40
2019-04-19T09:27:05.948Z,5.07
2019-04-19T09:29:45.421Z,4.83
2019-04-19T09:32:00.587Z,6.30
2019-04-19T09:34:21.892Z,5.13
2019-04-19T09:37:03.593Z,5.87
2019-04-19T09:39:32.609Z,4.83
2019-04-19T09:41:58.884Z,6.23
2019-04-19T09:44:29.025Z,4.60
2019-04-19T09:46:50.838Z,6.50
2019-04-19T09:49:39.426Z,5.63
2019-04-19T09:52:03.337Z,5.87
2019-04-19T09:54:45.977Z,5.57
2019-04-19T09:57:05.190Z,7.50
2019-04-19T09:59:28.982Z,5.30
2019-04-19T10:01:55.386Z,4.62
2019-04-19T10:04:20.982Z,5.77
2019-04-19T10:06:49.459Z,4.70
2019-04-19T10:09:22.117Z,5.03
2019-04-19T10:11:48.643Z,4.83
2019-04-19T10:14:17.331Z,8.30
2019-04-19T10:16:50.637Z,4.40
2019-04-19T10:19:19.147Z,5.17
2019-04-19T10:21:49.465Z,5.83
2019-04-19T10:24:20.836Z,5.20
2019-04-19T10:26:50.484Z,4.77
2019-04-19T10:29:26.529Z,5.33
2019-04-19T10:31:55.102Z,5.67
2019-04-19T10:34:24.816Z,5.53
2019-04-19T10:36:55.931Z,4.77
2019-04-19T10:39:25.865Z,7.53
2019-04-19T10:41:54.477Z,4.30
2019-04-19T10:44:25.272Z,4.73
2019-04-19T10:46:54.517Z,4.60
2019-04-19T10:49:33.320Z,5.40
2019-04-19T10:52:04.735Z,6.83
2019-04-19T10:54:33.358Z,11.83
2019-04-19T10:57:06.339Z,5.30
2019-04-19T10:59:36.466Z,4.53
2019-04-19T11:02:06.384Z,4.37
2019-04-19T11:04:35.255Z,4.03
2019-04-19T11:07:05.551Z,4.37
2019-04-19T11:09:35.389Z,4.67
2019-04-19T11:12:06.075Z,7.17
2019-04-19T11:14:34.737Z,4.30
2019-04-19T11:17:05.444Z,6.30
2019-04-19T11:19:49.857Z,5.00
2019-04-19T11:22:04.120Z,5.33
2019-04-19T11:24:33.882Z,5.13
2019-04-19T11:27:03.397Z,4.57
2019-04-19T11:29:32.255Z,7.33
2019-04-19T11:32:06.042Z,4.77
2019-04-19T11:34:35.476Z,5.77
2019-04-19T11:37:03.973Z,4.17
2019-04-19T11:39:32.812Z,5.50
2019-04-19T11:42:01.340Z,11.37
2019-04-19T11:44:30.999Z,5.43
2019-04-19T11:47:00.446Z,4.90
2019-04-19T11:49:34.366Z,5.30
2019-04-19T11:52:00.687Z,6.10
2019-04-19T11:54:30.355Z,4.77
2019-04-19T11:57:06.361Z,4.73
2019-04-19T11:59:48.490Z,4.77
2019-04-19T12:02:13.354Z,4.50
2019-04-19T12:04:42.063Z,8.70
2019-04-19T12:07:10.599Z,5.27
2019-04-19T12:09:39.072Z,4.17
2019-04-19T12:12:07.588Z,5.40
2019-04-19T12:14:36.058Z,6.83
2019-04-19T12:17:04.831Z,4.53
2019-04-19T12:19:39.735Z,4.97
2019-04-19T12:22:03.571Z,4.03
2019-04-19T12:24:32.906Z,5.10
2019-04-19T12:27:01.492Z,5.20
2019-04-19T12:29:36.483Z,4.07
2019-04-19T12:32:01.343Z,3.40
2019-04-19T12:34:30.793Z,5.20
2019-04-19T12:36:59.352Z,5.17
2019-04-19T12:39:27.891Z,6.53
2019-04-19T12:41:57.709Z,4.30
2019-04-19T12:44:27.070Z,4.37
2019-04-19T12:46:55.683Z,3.90
2019-04-19T12:49:24.628Z,4.43
2019-04-19T12:51:54.282Z,4.43
2019-04-19T12:54:23.688Z,4.70
2019-04-19T12:56:52.370Z,4.40
2019-04-19T12:59:22.094Z,3.93
2019-04-19T13:01:53.695Z,8.93
2019-04-19T13:04:24.474Z,7.30
2019-04-19T13:07:04.233Z,3.50
2019-04-19T13:09:33.049Z,4.37
2019-04-19T13:12:01.499Z,6.00
2019-04-19T13:14:29.977Z,7.90
2019-04-19T13:16:58.453Z,2.87
2019-04-19T13:19:27.055Z,3.60
2019-04-19T13:21:56.458Z,3.27
2019-04-19T13:24:25.058Z,4.10
2019-04-19T13:26:53.629Z,5.37
2019-04-19T13:29:23.214Z,4.03
2019-04-19T13:31:52.495Z,3.77
2019-04-19T13:34:21.052Z,3.63
2019-04-19T13:36:51.386Z,3.40
2019-04-19T13:39:24.161Z,2.67
2019-04-19T13:41:54.718Z,3.20
2019-04-19T13:44:23.164Z,3.37
2019-04-19T13:46:52.789Z,3.33
2019-04-19T13:49:22.443Z,5.60
2019-04-19T13:51:52.430Z,3.23
2019-04-19T13:54:20.954Z,4.73
2019-04-19T13:56:51.084Z,3.93
2019-04-19T13:59:20.101Z,3.07
2019-04-19T14:01:48.714Z,3.40
2019-04-19T14:04:17.797Z,2.70
2019-04-19T14:06:46.545Z,4.47
2019-04-19T14:09:17.141Z,4.03
2019-04-19T14:11:47.366Z,2.57
2019-04-19T14:14:16.562Z,2.90
2019-04-19T14:16:46.038Z,4.08
2019-04-19T14:19:14.928Z,2.97
2019-04-19T14:21:44.648Z,2.20
2019-04-19T14:24:13.429Z,3.20
2019-04-19T14:26:48.774Z,3.20
2019-04-19T14:29:12.186Z,2.33
2019-04-19T14:31:42.044Z,4.33
2019-04-19T14:34:11.021Z,2.80
2019-04-19T14:36:40.193Z,4.20
2019-04-19T14:39:10.716Z,2.40
2019-04-19T14:41:39.354Z,2.70
2019-04-19T14:44:09.146Z,1.83
2019-04-19T14:46:38.722Z,2.10
2019-04-19T14:49:07.215Z,3.07
2019-04-19T14:51:38.989Z,9.87
2019-04-19T14:54:06.882Z,2.90
2019-04-19T14:56:36.933Z,2.40
2019-04-19T14:59:05.709Z,2.50
2019-04-19T15:01:49.210Z,2.30
2019-04-19T15:04:35.436Z,1.63
2019-04-19T15:07:05.136Z,1.90
2019-04-19T15:09:33.775Z,1.70
2019-04-19T15:12:02.590Z,1.90
2019-04-19T15:14:32.519Z,1.60
2019-04-19T15:17:01.101Z,2.10
2019-04-19T15:19:29.598Z,2.30
2019-04-19T15:21:58.687Z,2.00
2019-04-19T15:24:28.479Z,1.60
2019-04-19T15:26:57.062Z,1.47
2019-04-19T15:29:25.559Z,1.70
2019-04-19T15:31:54.493Z,1.63
2019-04-19T15:34:22.982Z,1.97
2019-04-19T15:36:51.605Z,1.43
2019-04-19T15:39:20.151Z,2.00
2019-04-19T15:41:48.763Z,1.97
2019-04-19T15:44:17.270Z,1.63
2019-04-19T15:46:45.803Z,2.83
2019-04-19T15:49:15.524Z,2.07
2019-04-19T15:51:44.519Z,2.07
2019-04-19T15:54:14.316Z,1.27
2019-04-19T15:56:42.744Z,1.70
2019-04-19T15:59:12.555Z,1.50
2019-04-19T16:01:44.021Z,1.40
2019-04-19T16:04:14.256Z,1.70
2019-04-19T16:06:48.022Z,3.37
2019-04-19T16:09:31.242Z,3.10
2019-04-19T16:12:02.818Z,2.03
2019-04-19T16:14:32.313Z,1.30
2019-04-19T16:17:00.987Z,2.15
2019-04-19T16:19:30.231Z,2.13
2019-04-19T16:22:00.894Z,1.90
2019-04-19T16:24:29.356Z,2.03
2019-04-19T16:27:00.289Z,1.80
2019-04-19T16:29:40.206Z,1.80
2019-04-19T16:31:58.710Z,2.90
2019-04-19T16:34:27.419Z,2.03
2019-04-19T16:36:56.322Z,1.60
2019-04-19T16:39:27.700Z,1.77
2019-04-19T16:41:55.192Z,2.70
2019-04-19T16:44:23.714Z,1.70
2019-04-19T16:46:53.022Z,1.60
2019-04-19T16:49:22.692Z,1.67
2019-04-19T16:51:54.415Z,1.37
2019-04-19T16:54:22.533Z,3.20
2019-04-19T16:56:51.499Z,1.40
2019-04-19T16:59:21.777Z,1.90
2019-04-19T17:01:50.736Z,1.67
2019-04-19T17:04:19.791Z,1.83
2019-04-19T17:06:48.879Z,2.60
2019-04-19T17:09:17.454Z,1.60
2019-04-19T17:11:47.198Z,2.20
2019-04-19T17:14:16.902Z,1.57
2019-04-19T17:16:50.695Z,1.57
2019-04-19T17:19:21.386Z,2.10
2019-04-19T17:21:57.168Z,2.03
2019-04-19T17:24:20.874Z,1.60
2019-04-19T17:26:49.471Z,2.40
2019-04-19T17:29:19.056Z,1.73
2019-04-19T17:31:47.966Z,1.60
2019-04-19T17:34:16.396Z,2.20
2019-04-19T17:36:46.300Z,1.90
2019-04-19T17:39:14.983Z,1.63
2019-04-19T17:41:43.858Z,4.00
2019-04-19T17:44:13.544Z,2.33
2019-04-19T17:46:42.553Z,1.93
2019-04-19T17:49:11.013Z,1.93
2019-04-19T17:51:39.930Z,1.70
2019-04-19T17:54:09.727Z,2.57
2019-04-19T17:56:39.523Z,1.47
2019-04-19T17:59:08.134Z,2.00
2019-04-19T18:01:38.035Z,7.60
2019-04-19T18:04:07.086Z,1.70
2019-04-19T18:06:36.340Z,2.93
2019-04-19T18:09:12.738Z,1.93
2019-04-19T18:11:38.545Z,2.17
2019-04-19T18:14:07.441Z,2.40
2019-04-19T18:16:36.603Z,2.47
2019-04-19T18:19:05.461Z,2.47
2019-04-19T18:21:37.145Z,1.83
2019-04-19T18:24:10.295Z,2.50
2019-04-19T18:26:36.517Z,2.50
2019-04-19T18:29:09.546Z,1.93
2019-04-19T18:31:40.727Z,1.80
2019-04-19T18:34:11.172Z,7.27
2019-04-19T18:36:41.888Z,3.93
2019-04-19T18:39:08.622Z,3.03
2019-04-19T18:41:37.337Z,2.00
2019-04-19T18:44:15.192Z,2.30
2019-04-19T18:46:36.329Z,3.33
2019-04-19T18:49:05.562Z,2.43
2019-04-19T18:51:38.742Z,2.87
2019-04-19T18:54:17.094Z,2.13
2019-04-19T18:56:34.511Z,7.33
2019-04-19T18:59:12.026Z,2.27
2019-04-19T19:01:38.031Z,2.20
2019-04-19T19:04:05.046Z,2.60
2019-04-19T19:06:52.975Z,3.47
2019-04-19T19:09:33.517Z,4.87
2019-04-19T19:12:00.826Z,2.87
2019-04-19T19:14:24.702Z,2.50
2019-04-19T19:16:54.444Z,2.13
2019-04-19T19:19:27.580Z,5.07
2019-04-19T19:21:53.885Z,2.50
2019-04-19T19:24:47.598Z,2.60
2019-04-19T19:27:06.684Z,2.10
2019-04-19T19:29:22.793Z,4.67
2019-04-19T19:31:55.803Z,2.67
2019-04-19T19:34:25.304Z,2.93
2019-04-19T19:36:53.547Z,2.83
2019-04-19T19:39:30.321Z,3.70
2019-04-19T19:43:07.361Z,5.20
2019-04-19T19:44:45.881Z,3.93
2019-04-19T19:47:47.773Z,2.83
2019-04-19T19:50:22.840Z,3.00
2019-04-19T19:52:44.312Z,3.05
2019-04-19T19:55:15.272Z,3.20
2019-04-19T19:57:38.087Z,2.53
2019-04-19T20:00:04.341Z,4.70
2019-04-19T20:02:42.092Z,3.13
2019-04-19T20:04:57.471Z,4.70
2019-04-19T20:07:28.731Z,3.10
2019-04-19T20:10:04.232Z,2.60
2019-04-19T20:12:32.489Z,2.47
2019-04-19T20:15:00.082Z,5.00
2019-04-19T20:17:27.187Z,2.67
2019-04-19T20:19:56.207Z,3.10
2019-04-19T20:22:27.881Z,2.83
2019-04-19T20:25:02.350Z,3.87
2019-04-19T20:27:33.459Z,2.70
2019-04-19T20:30:00.139Z,3.03
2019-04-19T20:32:26.287Z,2.90
2019-04-19T20:34:58.287Z,2.67
2019-04-19T20:37:25.820Z,4.43
2019-04-19T20:40:01.904Z,4.10
2019-04-19T20:42:39.460Z,5.03
2019-04-19T20:45:05.634Z,5.60
2019-04-19T20:47:31.022Z,4.73
2019-04-19T20:49:56.614Z,7.10
2019-04-19T20:52:40.203Z,6.50
2019-04-19T20:55:20.424Z,5.60
2019-04-19T20:57:54.443Z,7.27
2019-04-19T21:00:11.690Z,4.87
2019-04-19T21:02:42.218Z,6.90
2019-04-19T21:05:11.037Z,4.80
2019-04-19T21:07:41.558Z,7.60
2019-04-19T21:10:14.292Z,4.83
2019-04-19T21:12:41.402Z,5.30
2019-04-19T21:15:18.939Z,5.80
2019-04-19T21:17:44.791Z,7.80
2019-04-19T21:20:14.109Z,6.80
2019-04-19T21:22:42.113Z,7.07
2019-04-19T21:25:19.170Z,4.87
2019-04-19T21:27:48.321Z,5.23
2019-04-19T21:30:12.984Z,6.70
2019-04-19T21:32:41.748Z,7.03
2019-04-19T21:35:12.589Z,6.70
2019-04-19T21:37:44.472Z,6.33
2019-04-19T21:40:16.606Z,8.37
2019-04-19T21:42:47.969Z,6.23
2019-04-19T21:45:11.787Z,8.60
2019-04-19T21:47:47.168Z,7.60
2019-04-19T21:50:11.012Z,8.90
2019-04-19T21:52:42.331Z,6.20
2019-04-19T21:55:22.437Z,6.10
2019-04-19T21:57:41.533Z,6.60
2019-04-19T22:00:54.458Z,5.77
2019-04-19T22:03:19.952Z,6.53
2019-04-19T22:05:47.355Z,6.50
2019-04-19T22:08:23.422Z,7.57
2019-04-19T22:10:48.356Z,6.10
2019-04-19T22:13:16.751Z,10.87
2019-04-19T22:15:51.151Z,6.07
2019-04-19T22:18:15.415Z,5.83
2019-04-19T22:20:46.023Z,5.37
2019-04-19T22:23:14.879Z,7.00
2019-04-19T22:25:52.689Z,9.73
2019-04-19T22:28:15.291Z,5.17
2019-04-19T22:30:49.657Z,4.33
2019-04-19T22:33:14.325Z,8.30
2019-04-19T22:35:48.062Z,5.22
2019-04-19T22:38:17.988Z,3.83
2019-04-19T22:40:43.233Z,3.90
2019-04-19T22:43:14.621Z,9.10
2019-04-19T22:45:42.471Z,3.90
2019-04-19T22:48:16.319Z,6.87
2019-04-19T22:50:42.394Z,5.10
2019-04-19T22:53:10.903Z,5.90
2019-04-19T22:55:47.237Z,6.17
2019-04-19T22:58:16.451Z,6.53
2019-04-19T23:00:43.605Z,4.93
2019-04-19T23:03:25.324Z,5.40
2019-04-19T23:05:47.069Z,4.97
2019-04-19T23:08:18.830Z,5.80
2019-04-19T23:10:52.439Z,6.50
2019-04-19T23:13:19.783Z,4.83
2019-04-19T23:15:52.197Z,4.47
2019-04-19T23:18:21.362Z,5.90
2019-04-19T23:20:48.657Z,5.53
2019-04-19T23:23:23.163Z,6.00
2019-04-19T23:26:03.373Z,6.40
2019-04-19T23:28:27.022Z,5.53
2019-04-19T23:30:51.149Z,6.83
2019-04-19T23:33:21.120Z,4.33
2019-04-19T23:35:49.108Z,6.50
2019-04-19T23:38:22.168Z,5.33
2019-04-19T23:40:48.740Z,7.87
2019-04-19T23:43:24.185Z,8.53
2019-04-19T23:45:49.115Z,8.58
2019-04-19T23:48:18.909Z,9.13
2019-04-19T23:50:48.279Z,10.40
2019-04-19T23:53:16.777Z,6.77
2019-04-19T23:55:46.549Z,7.87
2019-04-19T23:58:22.838Z,9.30
